createdAt,value
2022-08-06T00:00:03.573Z,2.50
2022-08-06T00:02:25.964Z,2.40
2022-08-06T00:05:03.920Z,2.50
2022-08-06T00:07:45.048Z,2.77
2022-08-06T00:10:18.875Z,2.63
2022-08-06T00:12:48.713Z,2.60
2022-08-06T00:15:19.804Z,2.47
2022-08-06T00:18:07.826Z,2.80
2022-08-06T00:20:42.066Z,2.70
2022-08-06T00:23:12.575Z,2.63
2022-08-06T00:25:51.945Z,2.50
2022-08-06T00:28:30.463Z,2.40
2022-08-06T00:31:01.071Z,2.87
2022-08-06T00:33:43.555Z,2.72
2022-08-06T00:36:24.986Z,3.05
2022-08-06T00:38:53.808Z,3.00
2022-08-06T00:41:27.336Z,3.23
2022-08-06T00:44:02.386Z,3.33
2022-08-06T00:46:32.122Z,3.30
2022-08-06T00:49:11.245Z,3.40
2022-08-06T00:51:50.182Z,3.37
2022-08-06T00:54:28.546Z,3.50
2022-08-06T00:57:07.699Z,3.43
2022-08-06T01:02:11.700Z,3.70
2022-08-06T01:04:42.936Z,3.83
2022-08-06T01:07:10.789Z,3.80
2022-08-06T01:09:46.211Z,3.83
2022-08-06T01:12:33.618Z,3.95
2022-08-06T01:15:16.341Z,4.37
2022-08-06T01:17:58.109Z,4.20
2022-08-06T01:21:56.647Z,4.40
2022-08-06T01:24:06.504Z,4.70
2022-08-06T01:26:43.986Z,4.77
2022-08-06T01:29:27.125Z,5.03
2022-08-06T01:32:03.008Z,5.47
2022-08-06T01:34:41.723Z,5.00
2022-08-06T01:37:21.606Z,4.93
2022-08-06T01:40:02.587Z,5.77
2022-08-06T01:42:36.214Z,6.47
2022-08-06T01:45:13.322Z,6.30
2022-08-06T01:47:54.262Z,6.13
2022-08-06T01:50:30.844Z,5.90
2022-08-06T01:53:03.333Z,5.67
2022-08-06T01:55:58.726Z,6.13
2022-08-06T01:59:01.097Z,5.82
2022-08-06T02:01:54.099Z,5.80
2022-08-06T02:04:30.235Z,5.73
2022-08-06T02:07:04.269Z,5.70
2022-08-06T02:09:47.881Z,5.20
2022-08-06T02:12:25.824Z,5.27
2022-08-06T02:14:57.929Z,5.30
2022-08-06T02:18:03.909Z,5.33
2022-08-06T02:20:37.321Z,5.47
2022-08-06T02:23:12.096Z,5.73
2022-08-06T02:25:44.474Z,5.30
2022-08-06T02:28:25.575Z,5.10
2022-08-06T02:30:57.398Z,5.57
2022-08-06T02:34:01.459Z,5.63
2022-08-06T02:36:27.238Z,5.80
2022-08-06T02:39:04.308Z,5.50
2022-08-06T02:41:53.794Z,5.57
2022-08-06T02:44:39.939Z,5.50
2022-08-06T02:47:20.557Z,5.30
2022-08-06T02:49:57.529Z,5.03
2022-08-06T02:52:56.320Z,5.27
2022-08-06T02:55:33.973Z,5.23
2022-08-06T02:58:15.807Z,5.90
2022-08-06T03:00:51.860Z,5.30
2022-08-06T03:03:35.367Z,5.40
2022-08-06T03:06:08.302Z,5.40
2022-08-06T03:08:42.565Z,5.87
2022-08-06T03:11:13.062Z,5.80
2022-08-06T03:13:44.517Z,6.03
2022-08-06T03:16:23.643Z,5.83
2022-08-06T03:19:56.326Z,6.30
2022-08-06T03:21:55.724Z,5.60
2022-08-06T03:24:30.666Z,6.73
2022-08-06T03:27:03.624Z,5.87
2022-08-06T03:29:35.538Z,6.40
2022-08-06T03:32:24.935Z,6.40
2022-08-06T03:34:55.251Z,6.17
2022-08-06T03:37:28.742Z,6.27
2022-08-06T03:40:19.702Z,6.40
2022-08-06T03:42:47.761Z,6.60
2022-08-06T03:45:35.766Z,7.07
2022-08-06T03:48:14.260Z,6.57
2022-08-06T03:51:09.013Z,6.50
2022-08-06T03:53:50.144Z,7.17
2022-08-06T03:56:29.845Z,6.93
2022-08-06T03:59:04.613Z,6.57
2022-08-06T04:01:43.309Z,6.82
2022-08-06T04:04:27.120Z,6.80
2022-08-06T04:06:59.087Z,7.10
2022-08-06T04:09:58.472Z,7.10
2022-08-06T04:13:07.551Z,6.43
2022-08-06T04:15:13.992Z,6.67
2022-08-06T04:17:48.640Z,6.80
2022-08-06T04:20:41.137Z,6.53
2022-08-06T04:23:11.496Z,7.20
2022-08-06T04:25:45.905Z,6.37
2022-08-06T04:28:19.855Z,6.40
2022-08-06T04:30:51.662Z,6.00
2022-08-06T04:33:35.121Z,6.00
2022-08-06T04:36:17.152Z,5.87
2022-08-06T04:38:52.145Z,5.97
2022-08-06T04:41:23.090Z,6.47
2022-08-06T04:43:55.251Z,6.40
2022-08-06T04:46:27.560Z,6.60
2022-08-06T04:49:00.886Z,6.20
2022-08-06T04:52:34.399Z,5.60
2022-08-06T04:54:18.248Z,6.70
2022-08-06T04:56:51.405Z,5.50
2022-08-06T04:59:19.610Z,5.50
2022-08-06T05:01:56.768Z,5.00
2022-08-06T05:04:32.738Z,5.30
2022-08-06T05:07:13.529Z,5.20
2022-08-06T05:09:44.208Z,4.77
2022-08-06T05:12:31.888Z,4.50
2022-08-06T05:15:09.710Z,3.70
2022-08-06T05:17:48.670Z,3.53
2022-08-06T05:20:27.802Z,3.33
2022-08-06T05:23:08.798Z,3.30
2022-08-06T05:25:48.704Z,3.10
2022-08-06T05:28:27.371Z,2.78
2022-08-06T05:30:56.615Z,3.10
2022-08-06T05:33:29.708Z,2.75
2022-08-06T05:36:01.934Z,2.70
2022-08-06T05:38:36.135Z,2.40
2022-08-06T05:41:10.797Z,2.85
2022-08-06T05:43:59.225Z,2.60
2022-08-06T05:46:35.909Z,2.38
2022-08-06T05:49:12.292Z,2.65
2022-08-06T05:52:08.879Z,2.33
2022-08-06T05:54:45.498Z,2.33
2022-08-06T05:57:40.591Z,2.45
2022-08-06T06:00:42.305Z,1.88
2022-08-06T06:03:28.402Z,1.80
2022-08-06T06:06:17.695Z,2.47
2022-08-06T06:08:57.840Z,1.90
2022-08-06T06:11:55.215Z,2.00
2022-08-06T06:14:38.126Z,2.00
2022-08-06T06:17:48.419Z,2.08
2022-08-06T06:20:58.609Z,1.77
2022-08-06T06:23:21.740Z,1.85
2022-08-06T06:26:03.262Z,2.30
2022-08-06T06:28:47.204Z,1.98
2022-08-06T06:32:07.714Z,1.70
2022-08-06T06:34:45.431Z,1.80
2022-08-06T06:37:25.650Z,1.48
2022-08-06T06:40:14.721Z,1.30
2022-08-06T06:42:57.929Z,1.40
2022-08-06T06:46:07.250Z,1.27
2022-08-06T06:48:35.947Z,1.20
2022-08-06T06:51:40.597Z,1.13
2022-08-06T06:54:08.768Z,1.25
2022-08-06T06:56:46.269Z,1.30
2022-08-06T06:59:19.652Z,1.30
2022-08-06T07:01:54.991Z,1.40
2022-08-06T07:04:29.522Z,1.20
2022-08-06T07:07:07.851Z,1.10
2022-08-06T07:09:43.180Z,1.00
2022-08-06T07:12:33.996Z,1.55
2022-08-06T07:15:07.960Z,1.10
2022-08-06T07:17:49.353Z,0.90
2022-08-06T07:20:25.976Z,1.10
2022-08-06T07:24:03.183Z,0.70
2022-08-06T07:25:55.376Z,0.77
2022-08-06T07:28:29.390Z,0.70
2022-08-06T07:31:04.441Z,0.73
2022-08-06T07:34:01.856Z,0.82
2022-08-06T07:36:38.433Z,0.50
2022-08-06T07:39:16.028Z,0.63
2022-08-06T07:42:07.490Z,0.40
2022-08-06T07:44:54.587Z,0.60
2022-08-06T07:47:46.571Z,0.30
2022-08-06T07:50:23.915Z,0.40
2022-08-06T07:52:54.985Z,0.43
2022-08-06T07:55:37.378Z,0.40
2022-08-06T07:58:10.902Z,0.20
2022-08-06T08:00:49.422Z,0.40
2022-08-06T08:03:56.349Z,0.30
2022-08-06T08:06:29.034Z,0.40
2022-08-06T08:09:04.252Z,0.45
2022-08-06T08:11:37.475Z,0.47
2022-08-06T08:14:25.755Z,0.50
2022-08-06T08:16:53.873Z,0.60
2022-08-06T08:19:24.939Z,0.52
2022-08-06T08:21:54.243Z,0.70
2022-08-06T08:24:22.192Z,0.50
2022-08-06T08:27:22.055Z,0.63
2022-08-06T08:29:41.054Z,0.40
2022-08-06T08:32:23.258Z,0.50
2022-08-06T08:34:52.865Z,0.55
2022-08-06T08:37:21.362Z,0.47
2022-08-06T08:39:50.362Z,0.55
2022-08-06T08:42:31.842Z,0.50
2022-08-06T08:45:02.196Z,0.50
2022-08-06T08:47:46.911Z,0.40
2022-08-06T08:50:26.426Z,0.50
2022-08-06T08:53:07.489Z,0.40
2022-08-06T08:57:09.690Z,0.45
2022-08-06T08:58:39.678Z,0.50
2022-08-06T09:01:51.479Z,0.40
2022-08-06T09:04:05.056Z,0.40
2022-08-06T09:06:37.225Z,0.43
2022-08-06T09:09:08.343Z,0.52
2022-08-06T09:12:04.783Z,0.52
2022-08-06T09:14:38.037Z,0.40
2022-08-06T09:17:12.500Z,0.45
2022-08-06T09:19:41.928Z,0.40
2022-08-06T09:22:11.864Z,0.50
2022-08-06T09:24:40.610Z,0.50
2022-08-06T09:27:46.086Z,0.43
2022-08-06T09:30:25.588Z,0.50
2022-08-06T09:33:04.318Z,0.40
2022-08-06T09:36:00.119Z,0.30
2022-08-06T09:38:29.873Z,0.38
2022-08-06T09:41:08.844Z,0.40
2022-08-06T09:44:02.996Z,0.40
2022-08-06T09:46:41.171Z,0.50
2022-08-06T09:49:45.419Z,0.88
2022-08-06T09:52:18.153Z,0.40
2022-08-06T09:54:52.990Z,0.50
2022-08-06T09:57:35.977Z,0.52
2022-08-06T10:00:14.792Z,0.60
2022-08-06T10:02:51.456Z,0.30
2022-08-06T10:05:21.115Z,0.47
2022-08-06T10:08:08.103Z,0.55
2022-08-06T10:10:46.717Z,0.55
2022-08-06T10:13:22.875Z,0.40
2022-08-06T10:16:00.585Z,0.57
2022-08-06T10:18:55.016Z,0.43
2022-08-06T10:21:40.973Z,0.50
2022-08-06T10:24:12.177Z,0.47
2022-08-06T10:26:43.565Z,0.60
2022-08-06T10:29:18.713Z,0.50
2022-08-06T10:31:54.390Z,0.40
2022-08-06T10:34:31.078Z,0.45
2022-08-06T10:37:48.213Z,0.40
2022-08-06T10:40:10.059Z,0.40
2022-08-06T10:42:40.287Z,0.73
2022-08-06T10:45:16.246Z,0.60
2022-08-06T10:48:58.205Z,0.40
2022-08-06T10:50:52.488Z,0.40
2022-08-06T10:54:01.477Z,0.40
2022-08-06T10:56:18.219Z,0.50
2022-08-06T10:58:51.781Z,0.50
2022-08-06T11:01:36.703Z,0.30
2022-08-06T11:04:32.595Z,0.38
2022-08-06T11:08:09.880Z,0.47
2022-08-06T11:11:19.921Z,0.68
2022-08-06T11:14:03.563Z,0.35
2022-08-06T11:16:34.324Z,0.50
2022-08-06T11:19:09.621Z,0.40
2022-08-06T11:22:01.035Z,0.40
2022-08-06T11:24:38.147Z,0.40
2022-08-06T11:30:17.533Z,0.40
2022-08-06T11:32:54.869Z,0.40
2022-08-06T11:35:52.710Z,0.43
2022-08-06T11:39:10.039Z,0.65
2022-08-06T11:41:59.154Z,0.50
2022-08-06T11:44:30.555Z,0.70
2022-08-06T11:47:14.245Z,0.60
2022-08-06T11:49:46.579Z,0.50
2022-08-06T11:52:43.916Z,0.30
2022-08-06T11:55:22.541Z,0.35
2022-08-06T11:58:21.731Z,0.60
2022-08-06T12:01:03.522Z,0.50
2022-08-06T12:03:49.375Z,0.40
2022-08-06T12:06:26.426Z,0.88
2022-08-06T12:09:21.104Z,0.60
2022-08-06T12:11:52.069Z,1.02
2022-08-06T12:14:49.245Z,1.83
2022-08-06T12:17:20.719Z,0.50
2022-08-06T12:20:01.715Z,0.80
2022-08-06T12:22:34.109Z,0.80
2022-08-06T12:25:11.628Z,0.50
2022-08-06T12:27:50.492Z,0.30
2022-08-06T12:30:37.503Z,1.08
2022-08-06T12:33:15.211Z,0.52
2022-08-06T12:35:56.181Z,0.50
2022-08-06T12:38:28.418Z,0.70
2022-08-06T12:40:58.474Z,0.50
2022-08-06T12:43:42.884Z,0.63
2022-08-06T12:46:18.766Z,0.52
2022-08-06T12:48:51.498Z,0.43
2022-08-06T12:51:26.007Z,0.50
2022-08-06T12:54:00.164Z,0.68
2022-08-06T12:56:33.075Z,0.60
2022-08-06T12:59:05.123Z,0.45
2022-08-06T13:02:07.002Z,0.30
2022-08-06T13:04:31.131Z,0.50
2022-08-06T13:07:02.610Z,0.50
2022-08-06T13:09:35.626Z,0.50
2022-08-06T13:12:20.020Z,0.43
2022-08-06T13:15:09.693Z,0.65
2022-08-06T13:18:30.186Z,0.40
2022-08-06T13:20:59.184Z,0.50
2022-08-06T13:23:34.549Z,0.52
2022-08-06T13:26:25.904Z,0.70
2022-08-06T13:30:35.277Z,0.40
2022-08-06T13:32:19.609Z,0.50
2022-08-06T13:34:59.295Z,0.77
2022-08-06T13:37:57.218Z,0.47
2022-08-06T13:40:46.411Z,0.43
2022-08-06T13:43:40.036Z,0.40
2022-08-06T13:46:17.204Z,0.22
2022-08-06T13:48:52.699Z,0.40
2022-08-06T13:51:27.987Z,0.50
2022-08-06T13:53:58.747Z,0.40
2022-08-06T13:56:29.305Z,0.50
2022-08-06T13:58:59.147Z,0.47
2022-08-06T14:01:44.656Z,0.80
2022-08-06T14:04:21.002Z,0.65
2022-08-06T14:06:53.645Z,0.60
2022-08-06T14:09:25.277Z,0.52
2022-08-06T14:11:58.618Z,0.40
2022-08-06T14:14:30.089Z,0.45
2022-08-06T14:17:00.789Z,0.50
2022-08-06T14:20:14.432Z,0.50
2022-08-06T14:22:20.446Z,0.43
2022-08-06T14:24:54.428Z,0.50
2022-08-06T14:27:23.989Z,0.40
2022-08-06T14:30:22.299Z,0.60
2022-08-06T14:32:47.985Z,0.50
2022-08-06T14:35:19.932Z,0.55
2022-08-06T14:37:56.012Z,0.50
2022-08-06T14:41:02.776Z,0.50
2022-08-06T14:43:55.749Z,0.52
2022-08-06T14:46:30.260Z,0.40
2022-08-06T14:49:05.525Z,0.40
2022-08-06T14:52:20.530Z,0.60
2022-08-06T14:54:32.034Z,0.60
2022-08-06T14:57:14.756Z,0.50
2022-08-06T14:59:54.179Z,0.47
2022-08-06T15:02:26.858Z,0.70
2022-08-06T15:04:55.733Z,0.60
2022-08-06T15:07:27.024Z,0.50
2022-08-06T15:10:27.065Z,0.80
2022-08-06T15:13:01.405Z,1.13
2022-08-06T15:15:36.435Z,1.10
2022-08-06T15:18:25.100Z,1.42
2022-08-06T15:21:10.538Z,1.00
2022-08-06T15:23:53.470Z,0.80
2022-08-06T15:26:42.242Z,0.70
2022-08-06T15:29:15.580Z,0.52
2022-08-06T15:31:45.694Z,0.70
2022-08-06T15:34:20.206Z,0.70
2022-08-06T15:36:50.634Z,0.88
2022-08-06T15:39:52.843Z,0.68
2022-08-06T15:42:24.637Z,0.68
2022-08-06T15:44:53.832Z,0.60
2022-08-06T15:47:31.929Z,0.95
2022-08-06T15:50:05.700Z,0.75
2022-08-06T15:52:37.411Z,0.98
2022-08-06T15:55:15.231Z,1.00
2022-08-06T16:00:58.346Z,1.10
2022-08-06T16:03:31.076Z,0.70
2022-08-06T16:06:10.566Z,0.70
2022-08-06T16:08:47.894Z,1.05
2022-08-06T16:11:20.773Z,0.52
2022-08-06T16:13:54.788Z,0.98
2022-08-06T16:16:27.436Z,0.80
2022-08-06T16:19:02.275Z,0.80
2022-08-06T16:21:34.044Z,1.20
2022-08-06T16:24:05.559Z,1.00
2022-08-06T16:26:41.951Z,0.93
2022-08-06T16:29:19.859Z,0.90
2022-08-06T16:31:54.092Z,1.13
2022-08-06T16:34:30.173Z,1.15
2022-08-06T16:37:28.009Z,0.60
2022-08-06T16:39:57.375Z,0.80
2022-08-06T16:42:30.045Z,1.00
2022-08-06T16:45:02.381Z,0.90
2022-08-06T16:50:33.755Z,1.05
2022-08-06T16:54:13.332Z,0.90
2022-08-06T16:55:58.773Z,1.00
2022-08-06T16:58:34.454Z,0.90
2022-08-06T17:02:14.154Z,1.00
2022-08-06T17:04:03.258Z,1.00
2022-08-06T17:06:34.216Z,0.90
2022-08-06T17:09:17.187Z,1.02
2022-08-06T17:14:35.713Z,1.00
2022-08-06T17:17:08.652Z,1.00
2022-08-06T17:19:43.610Z,1.17
2022-08-06T17:22:28.852Z,1.00
2022-08-06T17:24:59.844Z,1.40
2022-08-06T17:27:44.345Z,1.30
2022-08-06T17:30:18.957Z,1.45
2022-08-06T17:32:54.510Z,1.08
2022-08-06T17:36:29.631Z,1.30
2022-08-06T17:38:15.736Z,1.40
2022-08-06T17:40:49.361Z,1.00
2022-08-06T17:43:22.744Z,1.05
2022-08-06T17:46:26.467Z,0.90
2022-08-06T17:48:56.944Z,1.08
2022-08-06T17:51:32.785Z,1.13
2022-08-06T17:54:26.383Z,1.27
2022-08-06T17:56:53.501Z,1.10
2022-08-06T17:59:22.451Z,1.40
2022-08-06T18:01:58.052Z,1.02
2022-08-06T18:04:34.029Z,1.00
2022-08-06T18:07:11.983Z,1.25
2022-08-06T18:10:09.436Z,1.55
2022-08-06T18:12:49.339Z,1.10
2022-08-06T18:15:19.390Z,1.13
2022-08-06T18:18:04.610Z,1.20
2022-08-06T18:20:39.327Z,1.30
2022-08-06T18:23:20.727Z,1.30
2022-08-06T18:25:56.983Z,1.38
2022-08-06T18:28:49.355Z,1.23
2022-08-06T18:31:20.118Z,1.70
2022-08-06T18:33:54.016Z,2.97
2022-08-06T18:36:32.927Z,1.67
2022-08-06T18:39:02.159Z,1.70
2022-08-06T18:41:33.099Z,1.30
2022-08-06T18:44:01.556Z,1.52
2022-08-06T18:46:55.973Z,1.60
2022-08-06T18:49:32.165Z,1.38
2022-08-06T18:52:23.340Z,1.33
2022-08-06T18:54:56.647Z,1.42
2022-08-06T18:57:38.259Z,1.30
2022-08-06T19:00:19.842Z,1.30
2022-08-06T19:02:49.585Z,1.70
2022-08-06T19:05:28.245Z,1.83
2022-08-06T19:07:59.639Z,1.90
2022-08-06T19:10:29.147Z,1.50
2022-08-06T19:12:57.896Z,1.63
2022-08-06T19:15:46.754Z,1.50
2022-08-06T19:18:18.223Z,1.63
2022-08-06T19:20:48.518Z,1.60
2022-08-06T19:24:00.868Z,1.67
2022-08-06T19:26:12.402Z,1.63
2022-08-06T19:28:49.969Z,1.50
2022-08-06T19:31:23.539Z,1.70
2022-08-06T19:34:14.664Z,1.60
2022-08-06T19:36:45.744Z,1.60
2022-08-06T19:39:58.620Z,2.15
2022-08-06T19:42:31.567Z,1.95
2022-08-06T19:45:04.247Z,2.08
2022-08-06T19:47:47.887Z,2.15
2022-08-06T19:50:19.588Z,2.25
2022-08-06T19:52:49.068Z,2.10
2022-08-06T19:56:08.102Z,2.10
2022-08-06T19:58:19.814Z,2.17
2022-08-06T20:01:03.962Z,2.45
2022-08-06T20:03:36.878Z,2.65
2022-08-06T20:06:21.356Z,2.72
2022-08-06T20:08:58.073Z,2.67
2022-08-06T20:12:02.718Z,2.40
2022-08-06T20:14:16.299Z,6.68
2022-08-06T20:16:44.156Z,5.50
2022-08-06T20:19:12.446Z,5.88
2022-08-06T20:21:42.387Z,6.45
2022-08-06T20:24:15.370Z,5.90
2022-08-06T20:26:59.275Z,6.55
2022-08-06T20:30:04.685Z,4.00
2022-08-06T20:32:17.679Z,3.00
2022-08-06T20:34:48.297Z,3.10
2022-08-06T20:37:16.370Z,3.88
2022-08-06T20:39:48.527Z,2.80
2022-08-06T20:42:19.535Z,2.55
2022-08-06T20:44:51.661Z,2.70
2022-08-06T20:47:44.923Z,2.92
2022-08-06T20:50:11.738Z,2.40
2022-08-06T20:52:40.325Z,2.30
2022-08-06T20:55:14.090Z,2.63
2022-08-06T20:57:48.228Z,2.40
2022-08-06T21:00:22.100Z,2.40
2022-08-06T21:03:27.991Z,2.97
2022-08-06T21:05:51.177Z,2.15
2022-08-06T21:08:26.739Z,2.65
2022-08-06T21:10:57.880Z,2.88
2022-08-06T21:13:36.292Z,2.72
2022-08-06T21:16:29.013Z,3.30
2022-08-06T21:19:00.784Z,2.40
2022-08-06T21:21:31.422Z,2.47
2022-08-06T21:24:01.381Z,2.58
2022-08-06T21:26:34.530Z,2.60
2022-08-06T21:30:08.466Z,2.40
2022-08-06T21:31:58.544Z,2.63
2022-08-06T21:34:27.746Z,2.65
2022-08-06T21:36:58.091Z,2.60
2022-08-06T21:39:51.997Z,2.38
2022-08-06T21:42:15.510Z,2.40
2022-08-06T21:44:47.537Z,2.38
2022-08-06T21:47:19.505Z,2.60
2022-08-06T21:49:59.119Z,2.65
2022-08-06T21:52:33.985Z,2.70
2022-08-06T21:56:35.448Z,2.60
2022-08-06T21:57:56.940Z,2.58
2022-08-06T22:00:45.395Z,3.03
2022-08-06T22:04:37.983Z,2.95
2022-08-06T22:06:21.492Z,3.00
2022-08-06T22:08:57.373Z,2.50
2022-08-06T22:12:38.506Z,2.50
2022-08-06T22:14:17.328Z,2.78
2022-08-06T22:16:58.333Z,2.70
2022-08-06T22:19:33.298Z,2.83
2022-08-06T22:22:07.345Z,2.83
2022-08-06T22:24:37.228Z,3.17
2022-08-06T22:27:06.201Z,3.30
2022-08-06T22:29:53.372Z,3.60
2022-08-06T22:32:22.655Z,2.92
2022-08-06T22:34:52.111Z,3.00
2022-08-06T22:38:19.399Z,3.17
2022-08-06T22:40:11.057Z,2.90
2022-08-06T22:42:58.491Z,2.97
2022-08-06T22:46:00.507Z,2.78
2022-08-06T22:48:18.758Z,2.70
2022-08-06T22:51:02.957Z,2.63
2022-08-06T22:54:25.054Z,2.60
2022-08-06T22:56:18.740Z,2.70
2022-08-06T22:59:04.799Z,2.72
2022-08-06T23:02:07.652Z,2.70
2022-08-06T23:04:23.889Z,2.95
2022-08-06T23:06:54.605Z,3.05
2022-08-06T23:09:22.905Z,3.40
2022-08-06T23:11:59.739Z,3.20
2022-08-06T23:14:32.091Z,2.67
2022-08-06T23:17:02.585Z,3.30
2022-08-06T23:19:34.863Z,3.08
2022-08-06T23:22:05.539Z,3.05
2022-08-06T23:24:36.021Z,3.30
2022-08-06T23:27:07.054Z,3.40
2022-08-06T23:30:10.564Z,3.58
2022-08-06T23:32:40.757Z,2.90
2022-08-06T23:35:35.465Z,3.10
2022-08-06T23:38:05.568Z,3.30
2022-08-06T23:40:50.031Z,3.53
2022-08-06T23:43:19.657Z,3.35
2022-08-06T23:45:48.361Z,3.10
2022-08-06T23:48:16.854Z,3.42
2022-08-06T23:50:52.444Z,3.13
2022-08-06T23:54:08.470Z,3.08
2022-08-06T23:56:11.304Z,3.20
2022-08-06T23:58:48.652Z,3.35
